sensor_id;sensor_type;location;lat;lon;timestamp;pressure;altitude;pressure_sealevel;temperature;humidity
9415;BME280;4746;35.664;139.738;2023-02-03T00:00:06;100804.97;;;10.66;31.02
9415;BME280;4746;35.664;139.738;2023-02-03T00:02:33;100793.19;;;10.77;31.06
9415;BME280;4746;35.664;139.738;2023-02-03T00:05:01;100795.09;;;10.89;30.72
9415;BME280;4746;35.664;139.738;2023-02-03T00:07:29;100796.09;;;10.98;31.01
9415;BME280;4746;35.664;139.738;2023-02-03T00:09:57;100784.28;;;11.10;30.56
9415;BME280;4746;35.664;139.738;2023-02-03T00:12:25;100783.59;;;11.22;30.73
9415;BME280;4746;35.664;139.738;2023-02-03T00:14:53;100787.88;;;11.23;30.27
9415;BME280;4746;35.664;139.738;2023-02-03T00:17:20;100780.09;;;11.17;30.08
9415;BME280;4746;35.664;139.738;2023-02-03T00:19:48;100786.88;;;11.12;30.47
9415;BME280;4746;35.664;139.738;2023-02-03T00:22:15;100788.56;;;11.10;30.48
9415;BME280;4746;35.664;139.738;2023-02-03T00:24:44;100810.03;;;11.19;30.00
9415;BME280;4746;35.664;139.738;2023-02-03T00:27:12;100809.22;;;11.22;30.03
9415;BME280;4746;35.664;139.738;2023-02-03T00:29:40;100826.41;;;11.26;30.39
9415;BME280;4746;35.664;139.738;2023-02-03T00:32:07;100824.59;;;11.20;29.82
9415;BME280;4746;35.664;139.738;2023-02-03T00:34:35;100818.44;;;11.07;29.93
9415;BME280;4746;35.664;139.738;2023-02-03T00:37:02;100832.88;;;11.02;30.30
9415;BME280;4746;35.664;139.738;2023-02-03T00:39:30;100821.00;;;11.08;30.29
9415;BME280;4746;35.664;139.738;2023-02-03T00:41:57;100811.00;;;11.24;30.48
9415;BME280;4746;35.664;139.738;2023-02-03T00:44:25;100812.84;;;11.33;30.14
9415;BME280;4746;35.664;139.738;2023-02-03T00:46:52;100807.72;;;11.36;29.97
9415;BME280;4746;35.664;139.738;2023-02-03T00:49:20;100806.97;;;11.44;29.78
9415;BME280;4746;35.664;139.738;2023-02-03T00:51:47;100805.25;;;11.43;29.80
9415;BME280;4746;35.664;139.738;2023-02-03T00:54:15;100806.34;;;11.59;29.56
9415;BME280;4746;35.664;139.738;2023-02-03T00:56:42;100806.56;;;11.77;29.54
9415;BME280;4746;35.664;139.738;2023-02-03T00:59:10;100804.13;;;11.88;29.21
9415;BME280;4746;35.664;139.738;2023-02-03T01:01:38;100807.59;;;11.90;28.89
9415;BME280;4746;35.664;139.738;2023-02-03T01:04:05;100795.75;;;12.04;28.92
9415;BME280;4746;35.664;139.738;2023-02-03T01:06:33;100801.09;;;12.25;28.89
9415;BME280;4746;35.664;139.738;2023-02-03T01:09:04;100798.59;;;12.34;28.85
9415;BME280;4746;35.664;139.738;2023-02-03T01:11:32;100795.19;;;12.37;28.42
9415;BME280;4746;35.664;139.738;2023-02-03T01:13:59;100786.66;;;12.39;28.61
9415;BME280;4746;35.664;139.738;2023-02-03T01:16:29;100785.03;;;12.47;28.31
9415;BME280;4746;35.664;139.738;2023-02-03T01:18:57;100783.38;;;12.55;28.16
9415;BME280;4746;35.664;139.738;2023-02-03T01:21:26;100774.09;;;12.75;28.58
9415;BME280;4746;35.664;139.738;2023-02-03T01:23:54;100779.44;;;12.99;28.56
9415;BME280;4746;35.664;139.738;2023-02-03T01:26:23;100782.13;;;13.15;27.76
9415;BME280;4746;35.664;139.738;2023-02-03T01:28:57;100769.25;;;13.15;27.57
9415;BME280;4746;35.664;139.738;2023-02-03T01:31:35;100772.69;;;13.11;27.50
9415;BME280;4746;35.664;139.738;2023-02-03T01:34:07;100766.53;;;12.90;27.28
9415;BME280;4746;35.664;139.738;2023-02-03T01:36:38;100763.00;;;12.82;27.59
9415;BME280;4746;35.664;139.738;2023-02-03T01:39:09;100756.97;;;12.75;27.56
9415;BME280;4746;35.664;139.738;2023-02-03T01:41:39;100761.34;;;12.87;27.78
9415;BME280;4746;35.664;139.738;2023-02-03T01:44:41;100746.69;;;12.75;27.64
9415;BME280;4746;35.664;139.738;2023-02-03T01:47:38;100736.41;;;12.77;28.15
9415;BME280;4746;35.664;139.738;2023-02-03T01:50:35;100738.97;;;12.78;27.42
9415;BME280;4746;35.664;139.738;2023-02-03T01:53:10;100733.81;;;12.74;27.32
9415;BME280;4746;35.664;139.738;2023-02-03T01:55:47;100726.97;;;12.76;27.60
9415;BME280;4746;35.664;139.738;2023-02-03T01:58:36;100739.75;;;12.65;27.57
9415;BME280;4746;35.664;139.738;2023-02-03T02:01:08;100725.19;;;12.64;27.41
9415;BME280;4746;35.664;139.738;2023-02-03T02:03:49;100720.19;;;12.84;27.77
9415;BME280;4746;35.664;139.738;2023-02-03T02:06:20;100730.53;;;12.90;27.43
9415;BME280;4746;35.664;139.738;2023-02-03T02:08:51;100705.75;;;13.05;27.67
9415;BME280;4746;35.664;139.738;2023-02-03T02:11:24;100702.31;;;13.06;27.12
9415;BME280;4746;35.664;139.738;2023-02-03T02:13:58;100700.59;;;13.01;27.19
9415;BME280;4746;35.664;139.738;2023-02-03T02:19:57;100686.03;;;13.06;27.68
9415;BME280;4746;35.664;139.738;2023-02-03T02:25:47;100672.31;;;13.07;27.44
9415;BME280;4746;35.664;139.738;2023-02-03T02:29:02;100664.56;;;12.99;27.25
9415;BME280;4746;35.664;139.738;2023-02-03T02:35:22;100653.41;;;12.96;27.36
9415;BME280;4746;35.664;139.738;2023-02-03T02:38:36;100632.00;;;13.07;27.46
9415;BME280;4746;35.664;139.738;2023-02-03T02:44:23;100629.44;;;13.06;27.25
9415;BME280;4746;35.664;139.738;2023-02-03T02:47:03;100622.59;;;13.15;27.00
9415;BME280;4746;35.664;139.738;2023-02-03T02:49:43;100613.19;;;13.21;26.84
9415;BME280;4746;35.664;139.738;2023-02-03T02:52:15;100606.34;;;13.22;27.00
9415;BME280;4746;35.664;139.738;2023-02-03T02:54:51;100594.31;;;13.22;26.98
9415;BME280;4746;35.664;139.738;2023-02-03T02:57:24;100594.31;;;13.22;26.53
9415;BME280;4746;35.664;139.738;2023-02-03T02:59:54;100602.88;;;13.16;26.97
9415;BME280;4746;35.664;139.738;2023-02-03T03:02:30;100596.03;;;13.18;26.85
9415;BME280;4746;35.664;139.738;2023-02-03T03:04:58;100598.59;;;13.18;26.88
9415;BME280;4746;35.664;139.738;2023-02-03T03:07:29;100590.03;;;13.17;26.62
9415;BME280;4746;35.664;139.738;2023-02-03T03:10:08;100580.59;;;13.10;26.74
9415;BME280;4746;35.664;139.738;2023-02-03T03:12:46;100579.66;;;12.98;26.83
9415;BME280;4746;35.664;139.738;2023-02-03T03:15:26;100575.41;;;13.00;26.84
9415;BME280;4746;35.664;139.738;2023-02-03T03:18:41;100564.25;;;13.02;27.02
9415;BME280;4746;35.664;139.738;2023-02-03T03:21:15;100566.84;;;12.99;26.98
9415;BME280;4746;35.664;139.738;2023-02-03T03:23:50;100553.97;;;13.01;26.86
9415;BME280;4746;35.664;139.738;2023-02-03T03:26:49;100551.38;;;13.04;26.60
9415;BME280;4746;35.664;139.738;2023-02-03T03:29:30;100546.25;;;12.99;26.76
9415;BME280;4746;35.664;139.738;2023-02-03T03:32:02;100546.25;;;13.01;26.91
9415;BME280;4746;35.664;139.738;2023-02-03T03:34:31;100552.25;;;13.06;26.52
9415;BME280;4746;35.664;139.738;2023-02-03T03:40:09;100545.41;;;13.11;26.55
9415;BME280;4746;35.664;139.738;2023-02-03T03:42:49;100545.41;;;13.08;26.19
9415;BME280;4746;35.664;139.738;2023-02-03T03:51:47;100534.28;;;13.19;26.20
9415;BME280;4746;35.664;139.738;2023-02-03T03:54:21;100519.72;;;13.21;26.70
9415;BME280;4746;35.664;139.738;2023-02-03T03:59:37;100514.56;;;13.33;26.56
9415;BME280;4746;35.664;139.738;2023-02-03T04:02:05;100514.56;;;13.34;26.49
9415;BME280;4746;35.664;139.738;2023-02-03T04:04:36;100510.28;;;13.44;26.41
9415;BME280;4746;35.664;139.738;2023-02-03T04:07:06;100511.13;;;13.44;26.57
9415;BME280;4746;35.664;139.738;2023-02-03T04:09:33;100513.72;;;13.43;26.06
9415;BME280;4746;35.664;139.738;2023-02-03T04:12:03;100521.41;;;13.38;26.06
9415;BME280;4746;35.664;139.738;2023-02-03T04:14:35;100509.44;;;13.34;26.10
9415;BME280;4746;35.664;139.738;2023-02-03T04:17:07;100509.44;;;13.31;25.94
9415;BME280;4746;35.664;139.738;2023-02-03T04:19:35;100512.88;;;13.30;26.34
9415;BME280;4746;35.664;139.738;2023-02-03T04:22:02;100507.69;;;13.27;26.52
9415;BME280;4746;35.664;139.738;2023-02-03T04:24:30;100502.56;;;13.30;26.11
9415;BME280;4746;35.664;139.738;2023-02-03T04:26:57;100510.28;;;13.33;25.82
9415;BME280;4746;35.664;139.738;2023-02-03T04:29:25;100512.00;;;13.28;25.82
9415;BME280;4746;35.664;139.738;2023-02-03T04:31:52;100513.72;;;13.23;25.78
9415;BME280;4746;35.664;139.738;2023-02-03T04:34:20;100515.44;;;13.26;25.54
9415;BME280;4746;35.664;139.738;2023-02-03T04:36:47;100512.00;;;13.25;25.53
9415;BME280;4746;35.664;139.738;2023-02-03T04:39:15;100514.56;;;13.17;25.70
9415;BME280;4746;35.664;139.738;2023-02-03T04:41:42;100524.81;;;13.11;26.25
9415;BME280;4746;35.664;139.738;2023-02-03T04:44:10;100524.84;;;13.08;25.93
9415;BME280;4746;35.664;139.738;2023-02-03T04:47:02;100523.13;;;13.07;25.80
9415;BME280;4746;35.664;139.738;2023-02-03T04:49:29;100529.97;;;12.96;25.92
9415;BME280;4746;35.664;139.738;2023-02-03T04:51:57;100518.78;;;12.95;26.28
9415;BME280;4746;35.664;139.738;2023-02-03T04:54:26;100529.13;;;13.03;25.91
9415;BME280;4746;35.664;139.738;2023-02-03T04:56:54;100523.13;;;13.07;26.11
9415;BME280;4746;35.664;139.738;2023-02-03T04:59:21;100523.09;;;13.04;25.92
9415;BME280;4746;35.664;139.738;2023-02-03T05:01:49;100528.25;;;13.01;26.33
9415;BME280;4746;35.664;139.738;2023-02-03T05:04:16;100513.66;;;12.94;26.14
9415;BME280;4746;35.664;139.738;2023-02-03T05:06:44;100508.53;;;12.92;26.11
9415;BME280;4746;35.664;139.738;2023-02-03T05:09:12;100513.66;;;12.92;26.17
9415;BME280;4746;35.664;139.738;2023-02-03T05:11:39;100507.63;;;12.92;26.14
9415;BME280;4746;35.664;139.738;2023-02-03T05:14:07;100516.22;;;12.88;26.27
9415;BME280;4746;35.664;139.738;2023-02-03T05:16:35;100517.06;;;12.87;26.11
9415;BME280;4746;35.664;139.738;2023-02-03T05:19:02;100514.47;;;12.82;26.10
9415;BME280;4746;35.664;139.738;2023-02-03T05:21:30;100523.00;;;12.75;26.69
9415;BME280;4746;35.664;139.738;2023-02-03T05:23:57;100517.84;;;12.69;26.13
9415;BME280;4746;35.664;139.738;2023-02-03T05:26:26;100520.41;;;12.72;26.33
9415;BME280;4746;35.664;139.738;2023-02-03T05:28:53;100523.84;;;12.77;26.24
9415;BME280;4746;35.664;139.738;2023-02-03T05:31:21;100518.75;;;12.79;26.22
9415;BME280;4746;35.664;139.738;2023-02-03T05:33:48;100518.75;;;12.80;26.20
9415;BME280;4746;35.664;139.738;2023-02-03T05:36:16;100528.16;;;12.80;25.87
9415;BME280;4746;35.664;139.738;2023-02-03T05:38:43;100530.72;;;12.78;25.95
9415;BME280;4746;35.664;139.738;2023-02-03T05:41:12;100536.75;;;12.79;26.94
9415;BME280;4746;35.664;139.738;2023-02-03T05:43:58;100532.44;;;12.76;26.65
9415;BME280;4746;35.664;139.738;2023-02-03T05:46:25;100540.16;;;12.78;26.52
9415;BME280;4746;35.664;139.738;2023-02-03T05:48:53;100538.44;;;12.77;26.22
9415;BME280;4746;35.664;139.738;2023-02-03T05:51:20;100541.88;;;12.79;26.29
9415;BME280;4746;35.664;139.738;2023-02-03T05:53:48;100540.16;;;12.78;26.41
9415;BME280;4746;35.664;139.738;2023-02-03T05:56:15;100536.72;;;12.77;26.28
9415;BME280;4746;35.664;139.738;2023-02-03T05:58:43;100527.28;;;12.73;26.11
9415;BME280;4746;35.664;139.738;2023-02-03T06:01:10;100537.56;;;12.72;26.32
9415;BME280;4746;35.664;139.738;2023-02-03T06:03:38;100532.41;;;12.69;26.15
9415;BME280;4746;35.664;139.738;2023-02-03T06:06:05;100539.25;;;12.68;26.17
9415;BME280;4746;35.664;139.738;2023-02-03T06:08:33;100538.41;;;12.68;25.79
9415;BME280;4746;35.664;139.738;2023-02-03T06:11:00;100539.25;;;12.68;26.36
9415;BME280;4746;35.664;139.738;2023-02-03T06:13:28;100539.25;;;12.68;26.03
9415;BME280;4746;35.664;139.738;2023-02-03T06:15:55;100538.41;;;12.68;26.16
9415;BME280;4746;35.664;139.738;2023-02-03T06:18:23;100529.84;;;12.66;25.95
9415;BME280;4746;35.664;139.738;2023-02-03T06:20:51;100543.53;;;12.65;26.10
9415;BME280;4746;35.664;139.738;2023-02-03T06:23:19;100539.25;;;12.62;26.16
9415;BME280;4746;35.664;139.738;2023-02-03T06:25:50;100538.41;;;12.69;26.29
9415;BME280;4746;35.664;139.738;2023-02-03T06:28:18;100536.69;;;12.67;25.98
9415;BME280;4746;35.664;139.738;2023-02-03T06:30:50;100543.56;;;12.68;26.25
9415;BME280;4746;35.664;139.738;2023-02-03T06:33:19;100537.53;;;12.64;26.33
9415;BME280;4746;35.664;139.738;2023-02-03T06:35:47;100538.41;;;12.62;26.02
9415;BME280;4746;35.664;139.738;2023-02-03T06:38:14;100533.25;;;12.62;26.03
9415;BME280;4746;35.664;139.738;2023-02-03T06:40:42;100539.25;;;12.64;26.23
9415;BME280;4746;35.664;139.738;2023-02-03T06:43:12;100536.66;;;12.61;26.22
9415;BME280;4746;35.664;139.738;2023-02-03T06:45:40;100546.09;;;12.62;25.82
9415;BME280;4746;35.664;139.738;2023-02-03T06:48:08;100539.22;;;12.59;25.90
9415;BME280;4746;35.664;139.738;2023-02-03T06:50:35;100538.41;;;12.62;26.07
9415;BME280;4746;35.664;139.738;2023-02-03T06:53:03;100526.38;;;12.62;26.13
9415;BME280;4746;35.664;139.738;2023-02-03T06:55:30;100534.09;;;12.64;26.06
9415;BME280;4746;35.664;139.738;2023-02-03T06:57:58;100537.53;;;12.66;25.96
9415;BME280;4746;35.664;139.738;2023-02-03T07:00:25;100534.13;;;12.67;26.44
9415;BME280;4746;35.664;139.738;2023-02-03T07:02:57;100544.41;;;12.68;26.17
9415;BME280;4746;35.664;139.738;2023-02-03T07:05:25;100545.25;;;12.67;26.10
9415;BME280;4746;35.664;139.738;2023-02-03T07:07:53;100558.09;;;12.69;26.38
9415;BME280;4746;35.664;139.738;2023-02-03T07:10:22;100550.41;;;12.75;26.27
9415;BME280;4746;35.664;139.738;2023-02-03T07:12:49;100552.16;;;12.73;26.74
9415;BME280;4746;35.664;139.738;2023-02-03T07:15:18;100554.72;;;12.74;26.83
9415;BME280;4746;35.664;139.738;2023-02-03T07:17:47;100557.31;;;12.79;26.48
9415;BME280;4746;35.664;139.738;2023-02-03T07:20:21;100565.00;;;12.74;26.82
9415;BME280;4746;35.664;139.738;2023-02-03T07:22:56;100563.28;;;12.73;26.92
9415;BME280;4746;35.664;139.738;2023-02-03T07:25:25;100552.13;;;12.70;27.38
9415;BME280;4746;35.664;139.738;2023-02-03T07:27:52;100562.44;;;12.73;27.66
9415;BME280;4746;35.664;139.738;2023-02-03T07:30:20;100562.44;;;12.73;27.15
9415;BME280;4746;35.664;139.738;2023-02-03T07:32:51;100569.28;;;12.77;27.69
9415;BME280;4746;35.664;139.738;2023-02-03T07:35:19;100559.00;;;12.77;27.29
9415;BME280;4746;35.664;139.738;2023-02-03T07:37:46;100565.88;;;12.81;27.49
9415;BME280;4746;35.664;139.738;2023-02-03T07:40:15;100556.47;;;12.81;27.76
9415;BME280;4746;35.664;139.738;2023-02-03T07:42:44;100548.75;;;12.83;27.59
9415;BME280;4746;35.664;139.738;2023-02-03T07:45:14;100555.59;;;12.84;27.75
9415;BME280;4746;35.664;139.738;2023-02-03T07:47:43;100552.19;;;12.85;27.73
9415;BME280;4746;35.664;139.738;2023-02-03T07:50:12;100555.59;;;12.84;27.70
9415;BME280;4746;35.664;139.738;2023-02-03T07:52:40;100555.59;;;12.78;27.75
9415;BME280;4746;35.664;139.738;2023-02-03T07:55:08;100559.00;;;12.77;27.59
9415;BME280;4746;35.664;139.738;2023-02-03T07:57:36;100558.97;;;12.72;27.95
9415;BME280;4746;35.664;139.738;2023-02-03T08:00:06;100555.53;;;12.69;28.16
9415;BME280;4746;35.664;139.738;2023-02-03T08:02:34;100564.09;;;12.62;28.59
9415;BME280;4746;35.664;139.738;2023-02-03T08:05:01;100559.78;;;12.58;28.32
9415;BME280;4746;35.664;139.738;2023-02-03T08:07:28;100566.63;;;12.59;28.60
9415;BME280;4746;35.664;139.738;2023-02-03T08:09:56;100569.22;;;12.59;28.65
9415;BME280;4746;35.664;139.738;2023-02-03T08:12:23;100583.78;;;12.61;29.21
9415;BME280;4746;35.664;139.738;2023-02-03T08:14:51;100588.09;;;12.61;29.10
9415;BME280;4746;35.664;139.738;2023-02-03T08:17:18;100585.47;;;12.58;28.74
9415;BME280;4746;35.664;139.738;2023-02-03T08:19:46;100577.78;;;12.58;29.17
9415;BME280;4746;35.664;139.738;2023-02-03T08:22:14;100579.50;;;12.59;29.08
9415;BME280;4746;35.664;139.738;2023-02-03T08:24:46;100581.25;;;12.66;29.20
9415;BME280;4746;35.664;139.738;2023-02-03T08:27:17;100577.81;;;12.70;29.13
9415;BME280;4746;35.664;139.738;2023-02-03T08:29:45;100578.66;;;12.67;28.95
9415;BME280;4746;35.664;139.738;2023-02-03T08:32:19;100580.41;;;12.68;29.36
9415;BME280;4746;35.664;139.738;2023-02-03T08:34:49;100587.22;;;12.66;29.40
9415;BME280;4746;35.664;139.738;2023-02-03T08:37:23;100592.38;;;12.66;29.55
9415;BME280;4746;35.664;139.738;2023-02-03T08:39:52;100596.63;;;12.63;29.68
9415;BME280;4746;35.664;139.738;2023-02-03T08:42:20;100593.22;;;12.61;29.48
9415;BME280;4746;35.664;139.738;2023-02-03T08:44:48;100600.06;;;12.59;29.62
9415;BME280;4746;35.664;139.738;2023-02-03T08:47:17;100597.47;;;12.57;29.74
9415;BME280;4746;35.664;139.738;2023-02-03T08:49:45;100602.63;;;12.57;29.80
9415;BME280;4746;35.664;139.738;2023-02-03T08:52:15;100604.31;;;12.55;29.77
9415;BME280;4746;35.664;139.738;2023-02-03T08:54:43;100610.34;;;12.56;29.74
9415;BME280;4746;35.664;139.738;2023-02-03T08:57:11;100617.16;;;12.57;29.69
9415;BME280;4746;35.664;139.738;2023-02-03T08:59:41;100624.06;;;12.61;29.84
9415;BME280;4746;35.664;139.738;2023-02-03T09:02:17;100624.91;;;12.61;30.19
9415;BME280;4746;35.664;139.738;2023-02-03T09:04:47;100619.78;;;12.60;30.01
9415;BME280;4746;35.664;139.738;2023-02-03T09:07:16;100625.75;;;12.59;30.11
9415;BME280;4746;35.664;139.738;2023-02-03T09:09:43;100627.47;;;12.60;29.79
9415;BME280;4746;35.664;139.738;2023-02-03T09:12:12;100628.31;;;12.59;29.99
9415;BME280;4746;35.664;139.738;2023-02-03T09:14:40;100625.78;;;12.62;30.39
9415;BME280;4746;35.664;139.738;2023-02-03T09:17:09;100642.06;;;12.62;30.12
9415;BME280;4746;35.664;139.738;2023-02-03T09:19:38;100639.50;;;12.64;29.37
9415;BME280;4746;35.664;139.738;2023-02-03T09:22:05;100639.50;;;12.64;30.10
9415;BME280;4746;35.664;139.738;2023-02-03T09:24:33;100638.66;;;12.65;30.18
9415;BME280;4746;35.664;139.738;2023-02-03T09:27:01;100629.25;;;12.67;30.10
9415;BME280;4746;35.664;139.738;2023-02-03T09:29:29;100645.50;;;12.67;30.05
9415;BME280;4746;35.664;139.738;2023-02-03T09:31:56;100642.09;;;12.68;29.86
9415;BME280;4746;35.664;139.738;2023-02-03T09:34:25;100657.56;;;12.73;29.74
9415;BME280;4746;35.664;139.738;2023-02-03T09:36:53;100663.53;;;12.72;29.72
9415;BME280;4746;35.664;139.738;2023-02-03T09:39:20;100668.69;;;12.72;29.78
9415;BME280;4746;35.664;139.738;2023-02-03T09:45:17;100660.94;;;12.69;29.82
9415;BME280;4746;35.664;139.738;2023-02-03T09:47:47;100670.31;;;12.58;30.12
9415;BME280;4746;35.664;139.738;2023-02-03T09:50:30;100669.44;;;12.56;30.24
9415;BME280;4746;35.664;139.738;2023-02-03T09:53:22;100669.41;;;12.51;30.56
9415;BME280;4746;35.664;139.738;2023-02-03T09:55:52;100670.22;;;12.46;30.66
9415;BME280;4746;35.664;139.738;2023-02-03T09:58:21;100671.94;;;12.44;30.87
9415;BME280;4746;35.664;139.738;2023-02-03T10:00:53;100666.75;;;12.41;31.25
9415;BME280;4746;35.664;139.738;2023-02-03T10:06:44;100675.28;;;12.34;31.08
9415;BME280;4746;35.664;139.738;2023-02-03T10:10:04;100673.53;;;12.30;31.06
9415;BME280;4746;35.664;139.738;2023-02-03T10:12:50;100680.38;;;12.27;31.78
9415;BME280;4746;35.664;139.738;2023-02-03T10:16:00;100683.81;;;12.29;31.03
9415;BME280;4746;35.664;139.738;2023-02-03T10:18:38;100671.81;;;12.28;31.79
9415;BME280;4746;35.664;139.738;2023-02-03T10:23:51;100668.31;;;12.21;31.88
9415;BME280;4746;35.664;139.738;2023-02-03T10:26:26;100672.66;;;12.25;31.72
9415;BME280;4746;35.664;139.738;2023-02-03T10:29:07;100672.63;;;12.22;31.41
9415;BME280;4746;35.664;139.738;2023-02-03T10:31:40;100669.16;;;12.16;31.17
9415;BME280;4746;35.664;139.738;2023-02-03T10:34:14;100665.72;;;12.15;31.57
9415;BME280;4746;35.664;139.738;2023-02-03T10:37:10;100670.00;;;12.13;31.67
9415;BME280;4746;35.664;139.738;2023-02-03T10:39:48;100667.38;;;12.07;32.02
9415;BME280;4746;35.664;139.738;2023-02-03T10:42:17;100673.34;;;12.03;32.18
9415;BME280;4746;35.664;139.738;2023-02-03T10:44:55;100671.63;;;12.02;31.83
9415;BME280;4746;35.664;139.738;2023-02-03T10:47:50;100680.16;;;12.01;31.89
9415;BME280;4746;35.664;139.738;2023-02-03T10:50:23;100679.25;;;11.96;31.97
9415;BME280;4746;35.664;139.738;2023-02-03T10:53:24;100671.56;;;11.99;31.71
9415;BME280;4746;35.664;139.738;2023-02-03T10:56:14;100656.13;;;11.95;31.83
9415;BME280;4746;35.664;139.738;2023-02-03T10:59:04;100656.94;;;11.91;31.75
9415;BME280;4746;35.664;139.738;2023-02-03T11:01:43;100655.22;;;11.88;32.63
9415;BME280;4746;35.664;139.738;2023-02-03T11:04:31;100667.22;;;11.88;32.26
9415;BME280;4746;35.664;139.738;2023-02-03T11:07:23;100665.50;;;11.90;32.73
9415;BME280;4746;35.664;139.738;2023-02-03T11:09:51;100658.69;;;11.92;33.23
9415;BME280;4746;35.664;139.738;2023-02-03T11:12:20;100663.88;;;12.01;33.05
9415;BME280;4746;35.664;139.738;2023-02-03T11:14:50;100663.06;;;12.03;32.36
9415;BME280;4746;35.664;139.738;2023-02-03T11:17:25;100662.19;;;12.04;32.58
9415;BME280;4746;35.664;139.738;2023-02-03T11:20:18;100670.78;;;12.08;32.71
9415;BME280;4746;35.664;139.738;2023-02-03T11:22:47;100667.38;;;12.06;32.64
9415;BME280;4746;35.664;139.738;2023-02-03T11:25:27;100664.84;;;12.13;32.54
9415;BME280;4746;35.664;139.738;2023-02-03T11:28:05;100665.72;;;12.15;32.76
9415;BME280;4746;35.664;139.738;2023-02-03T11:30:34;100663.16;;;12.15;32.41
9415;BME280;4746;35.664;139.738;2023-02-03T11:33:17;100664.94;;;12.24;32.25
9415;BME280;4746;35.664;139.738;2023-02-03T11:36:01;100649.53;;;12.28;32.39
9415;BME280;4746;35.664;139.738;2023-02-03T11:38:34;100647.81;;;12.27;32.28
9415;BME280;4746;35.664;139.738;2023-02-03T11:41:19;100650.38;;;12.27;32.84
9415;BME280;4746;35.664;139.738;2023-02-03T11:43:47;100659.81;;;12.27;32.78
9415;BME280;4746;35.664;139.738;2023-02-03T11:46:15;100647.00;;;12.30;33.06
9415;BME280;4746;35.664;139.738;2023-02-03T11:50:01;100644.47;;;12.37;32.64
9415;BME280;4746;35.664;139.738;2023-02-03T11:52:49;100644.44;;;12.34;32.46
9415;BME280;4746;35.664;139.738;2023-02-03T11:58:15;100647.81;;;12.26;32.67
9415;BME280;4746;35.664;139.738;2023-02-03T12:07:40;100647.75;;;12.18;32.53
9415;BME280;4746;35.664;139.738;2023-02-03T12:25:51;100647.56;;;11.94;32.00
9415;BME280;4746;35.664;139.738;2023-02-03T12:31:43;100660.31;;;11.84;32.13
9415;BME280;4746;35.664;139.738;2023-02-03T12:34:31;100649.16;;;11.80;32.26
9415;BME280;4746;35.664;139.738;2023-02-03T12:37:22;100654.25;;;11.77;32.00
9415;BME280;4746;35.664;139.738;2023-02-03T12:39:57;100661.91;;;11.73;32.77
9415;BME280;4746;35.664;139.738;2023-02-03T12:42:40;100659.34;;;11.72;32.02
9415;BME280;4746;35.664;139.738;2023-02-03T12:45:31;100655.94;;;11.73;31.93
9415;BME280;4746;35.664;139.738;2023-02-03T12:48:08;100653.31;;;11.68;32.07
9415;BME280;4746;35.664;139.738;2023-02-03T12:50:52;100631.91;;;11.65;31.80
9415;BME280;4746;35.664;139.738;2023-02-03T12:53:39;100641.28;;;11.61;31.90
9415;BME280;4746;35.664;139.738;2023-02-03T12:56:36;100646.38;;;11.57;31.94
9415;BME280;4746;35.664;139.738;2023-02-03T12:59:14;100636.88;;;11.50;32.19
9415;BME280;4746;35.664;139.738;2023-02-03T13:02:25;100654.00;;;11.51;32.42
9415;BME280;4746;35.664;139.738;2023-02-03T13:05:23;100659.91;;;11.48;32.21
9415;BME280;4746;35.664;139.738;2023-02-03T13:08:28;100646.19;;;11.43;31.96
9415;BME280;4746;35.664;139.738;2023-02-03T13:14:21;100658.84;;;11.27;32.39
9415;BME280;4746;35.664;139.738;2023-02-03T13:16:59;100663.03;;;11.20;32.39
9415;BME280;4746;35.664;139.738;2023-02-03T13:19:52;100656.19;;;11.19;32.19
9415;BME280;4746;35.664;139.738;2023-02-03T13:22:23;100654.41;;;11.12;32.30
9415;BME280;4746;35.664;139.738;2023-02-03T13:25:06;100667.25;;;11.14;32.27
9415;BME280;4746;35.664;139.738;2023-02-03T13:28:12;100666.34;;;11.13;32.42
9415;BME280;4746;35.664;139.738;2023-02-03T13:31:13;100667.19;;;11.11;32.20
9415;BME280;4746;35.664;139.738;2023-02-03T13:42:25;100659.34;;;10.99;31.99
9415;BME280;4746;35.664;139.738;2023-02-03T13:45:33;100661.06;;;11.00;31.82
9415;BME280;4746;35.664;139.738;2023-02-03T13:48:31;100654.19;;;10.95;31.87
9415;BME280;4746;35.664;139.738;2023-02-03T13:51:07;100649.81;;;10.86;32.02
9415;BME280;4746;35.664;139.738;2023-02-03T13:53:42;100654.81;;;10.79;32.03
9415;BME280;4746;35.664;139.738;2023-02-03T13:56:22;100663.31;;;10.76;31.84
9415;BME280;4746;35.664;139.738;2023-02-03T14:01:42;100682.00;;;10.69;31.89
9415;BME280;4746;35.664;139.738;2023-02-03T14:07:30;100686.22;;;10.64;31.49
9415;BME280;4746;35.664;139.738;2023-02-03T14:10:22;100683.63;;;10.61;31.66
9415;BME280;4746;35.664;139.738;2023-02-03T14:18:32;100678.41;;;10.55;31.53
9415;BME280;4746;35.664;139.738;2023-02-03T14:21:18;100674.97;;;10.53;31.07
9415;BME280;4746;35.664;139.738;2023-02-03T14:23:58;100682.66;;;10.55;31.53
9415;BME280;4746;35.664;139.738;2023-02-03T14:29:09;100668.03;;;10.46;31.27
9415;BME280;4746;35.664;139.738;2023-02-03T14:32:11;100669.75;;;10.47;31.32
9415;BME280;4746;35.664;139.738;2023-02-03T14:34:49;100680.78;;;10.42;31.29
9415;BME280;4746;35.664;139.738;2023-02-03T14:43:23;100674.66;;;10.33;31.30
9415;BME280;4746;35.664;139.738;2023-02-03T14:46:43;100679.72;;;10.30;31.00
9415;BME280;4746;35.664;139.738;2023-02-03T14:52:25;100671.94;;;10.22;31.40
9415;BME280;4746;35.664;139.738;2023-02-03T14:55:43;100661.75;;;10.25;31.34
9415;BME280;4746;35.664;139.738;2023-02-03T15:00:58;100650.53;;;10.19;31.37
9415;BME280;4746;35.664;139.738;2023-02-03T15:03:27;100653.91;;;10.18;31.58
9415;BME280;4746;35.664;139.738;2023-02-03T15:06:06;100664.16;;;10.18;31.51
9415;BME280;4746;35.664;139.738;2023-02-03T15:08:45;100664.13;;;10.15;30.88